createdAt,value
2018-05-23T00:02:05.904Z,6.13
2018-05-23T00:04:33.460Z,6.77
2018-05-23T00:07:01.741Z,6.20
2018-05-23T00:09:29.253Z,5.80
2018-05-23T00:11:56.750Z,5.20
2018-05-23T00:14:25.018Z,7.77
2018-05-23T00:16:53.412Z,6.33
2018-05-23T00:19:20.945Z,6.17
2018-05-23T00:21:48.541Z,6.57
2018-05-23T00:24:16.044Z,5.63
2018-05-23T00:26:43.560Z,6.00
2018-05-23T00:29:11.096Z,5.47
2018-05-23T00:31:38.642Z,6.60
2018-05-23T00:34:06.920Z,6.63
2018-05-23T00:36:35.217Z,6.33
2018-05-23T00:39:02.710Z,6.77
2018-05-23T00:41:30.199Z,6.70
2018-05-23T00:43:58.592Z,7.10
2018-05-23T00:46:26.102Z,6.70
2018-05-23T00:48:53.760Z,6.33
2018-05-23T00:51:22.077Z,6.27
2018-05-23T00:53:49.599Z,6.67
2018-05-23T00:56:17.147Z,6.67
2018-05-23T00:58:44.660Z,6.20
2018-05-23T01:01:12.216Z,7.53
2018-05-23T01:03:39.789Z,6.60
2018-05-23T01:06:07.343Z,7.27
2018-05-23T01:08:34.855Z,6.50
2018-05-23T01:11:03.162Z,7.27
2018-05-23T01:13:30.671Z,6.70
2018-05-23T01:15:58.178Z,6.23
2018-05-23T01:18:25.731Z,6.43
2018-05-23T01:20:53.252Z,6.80
2018-05-23T01:23:20.775Z,7.10
2018-05-23T01:25:48.289Z,7.03
2018-05-23T01:28:16.593Z,6.83
2018-05-23T01:30:44.136Z,7.93
2018-05-23T01:33:11.697Z,7.53
2018-05-23T01:35:39.252Z,8.43
2018-05-23T01:38:06.768Z,7.27
2018-05-23T01:40:34.265Z,7.90
2018-05-23T01:43:01.835Z,7.27
2018-05-23T01:45:29.331Z,8.07
2018-05-23T01:47:56.887Z,7.13
2018-05-23T01:50:24.389Z,7.53
2018-05-23T01:52:51.898Z,6.83
2018-05-23T01:55:19.421Z,7.47
2018-05-23T01:57:46.940Z,7.17
2018-05-23T02:00:15.252Z,7.77
2018-05-23T02:02:42.744Z,7.97
2018-05-23T02:05:10.253Z,7.17
2018-05-23T02:07:37.752Z,8.27
2018-05-23T02:10:05.273Z,7.00
2018-05-23T02:12:32.767Z,7.30
2018-05-23T02:15:00.369Z,7.00
2018-05-23T02:17:28.646Z,8.13
2018-05-23T02:19:56.921Z,8.17
2018-05-23T02:22:24.419Z,8.03
2018-05-23T02:24:51.930Z,6.37
2018-05-23T02:27:20.211Z,7.93
2018-05-23T02:29:48.476Z,7.47
2018-05-23T02:32:16.745Z,7.87
2018-05-23T02:34:45.040Z,6.97
2018-05-23T02:37:12.605Z,7.23
2018-05-23T02:39:40.127Z,7.60
2018-05-23T02:42:07.739Z,11.00
2018-05-23T02:44:35.250Z,8.47
2018-05-23T02:47:03.668Z,7.60
2018-05-23T02:49:31.083Z,7.70
2018-05-23T02:51:59.372Z,7.23
2018-05-23T02:54:26.890Z,6.57
2018-05-23T02:56:54.403Z,7.10
2018-05-23T02:59:21.923Z,7.17
2018-05-23T03:01:50.197Z,7.80
2018-05-23T03:04:18.470Z,6.37
2018-05-23T03:06:45.994Z,7.13
2018-05-23T03:09:13.511Z,6.30
2018-05-23T03:11:41.080Z,7.10
2018-05-23T03:14:08.569Z,7.17
2018-05-23T03:16:36.107Z,6.40
2018-05-23T03:19:03.604Z,6.80
2018-05-23T03:21:31.204Z,8.27
2018-05-23T03:23:58.734Z,7.30
2018-05-23T03:26:27.044Z,6.33
2018-05-23T03:28:54.671Z,7.10
2018-05-23T03:31:22.950Z,6.70
2018-05-23T03:33:51.361Z,7.27
2018-05-23T03:36:18.867Z,6.87
2018-05-23T03:38:46.366Z,6.60
2018-05-23T03:41:13.896Z,6.70
2018-05-23T03:43:42.174Z,9.80
2018-05-23T03:46:10.440Z,6.73
2018-05-23T03:48:38.728Z,7.40
2018-05-23T03:51:07.005Z,7.33
2018-05-23T03:53:35.273Z,7.60
2018-05-23T03:56:03.573Z,7.10
2018-05-23T03:58:31.091Z,7.17
2018-05-23T04:01:10.513Z,6.57
2018-05-23T04:03:50.629Z,7.67
2018-05-23T04:09:40.899Z,7.30
2018-05-23T04:12:09.291Z,6.30
2018-05-23T04:14:36.808Z,7.13
2018-05-23T04:17:04.381Z,6.77
2018-05-23T04:19:32.675Z,6.70
2018-05-23T04:22:01.061Z,6.37
2018-05-23T04:24:28.602Z,7.20
2018-05-23T04:26:56.916Z,13.10
2018-05-23T04:29:24.430Z,7.10
2018-05-23T04:31:52.813Z,8.03
2018-05-23T04:34:21.072Z,7.30
2018-05-23T04:36:48.554Z,6.70
2018-05-23T04:39:16.135Z,5.90
2018-05-23T04:41:43.652Z,7.07
2018-05-23T04:44:11.949Z,6.60
2018-05-23T04:46:39.494Z,6.40
2018-05-23T04:49:07.836Z,7.20
2018-05-23T04:51:35.337Z,6.70
2018-05-23T04:54:02.855Z,7.10
2018-05-23T04:56:30.387Z,6.90
2018-05-23T04:58:57.901Z,6.00
2018-05-23T05:01:25.407Z,7.20
2018-05-23T05:03:52.942Z,7.07
2018-05-23T05:06:20.455Z,7.23
2018-05-23T05:08:48.768Z,7.07
2018-05-23T05:11:16.294Z,7.03
2018-05-23T05:13:44.668Z,7.57
2018-05-23T05:16:12.191Z,5.87
2018-05-23T05:18:39.825Z,6.77
2018-05-23T05:21:07.355Z,6.30
2018-05-23T05:23:34.881Z,6.13
2018-05-23T05:26:02.399Z,6.10
2018-05-23T05:28:29.913Z,5.90
2018-05-23T05:30:58.191Z,6.00
2018-05-23T05:33:26.492Z,7.67
2018-05-23T05:35:54.004Z,5.20
2018-05-23T05:38:21.512Z,5.47
2018-05-23T05:40:49.037Z,7.03
2018-05-23T05:43:17.380Z,6.20
2018-05-23T05:45:44.898Z,6.03
2018-05-23T05:48:12.423Z,5.93
2018-05-23T05:50:40.712Z,5.80
2018-05-23T05:53:09.077Z,5.70
2018-05-23T05:55:37.369Z,6.10
2018-05-23T05:58:04.927Z,8.00
2018-05-23T06:00:32.443Z,6.20
2018-05-23T06:03:00.768Z,5.67
2018-05-23T06:05:28.308Z,6.03
2018-05-23T06:07:56.613Z,5.13
2018-05-23T06:10:24.173Z,5.03
2018-05-23T06:12:52.900Z,4.90
2018-05-23T06:15:21.283Z,6.47
2018-05-23T06:17:48.872Z,5.77
2018-05-23T06:20:16.366Z,5.63
2018-05-23T06:22:44.007Z,4.70
2018-05-23T06:25:11.532Z,4.93
2018-05-23T06:27:39.880Z,5.47
2018-05-23T06:30:07.405Z,5.23
2018-05-23T06:32:34.932Z,4.47
2018-05-23T06:35:02.457Z,5.27
2018-05-23T06:37:29.965Z,5.20
2018-05-23T06:39:57.500Z,6.53
2018-05-23T06:42:25.811Z,5.57
2018-05-23T06:44:53.343Z,5.80
2018-05-23T06:47:20.863Z,5.63
2018-05-23T06:49:48.375Z,4.83
2018-05-23T06:52:15.886Z,5.60
2018-05-23T06:54:44.166Z,5.20
2018-05-23T06:57:12.433Z,5.83
2018-05-23T06:59:40.744Z,5.07
2018-05-23T07:02:08.272Z,5.17
2018-05-23T07:04:36.552Z,5.07
2018-05-23T07:07:04.810Z,5.60
2018-05-23T07:09:32.416Z,4.97
2018-05-23T07:11:59.921Z,5.53
2018-05-23T07:14:27.433Z,4.63
2018-05-23T07:16:54.915Z,4.97
2018-05-23T07:19:22.532Z,5.07
2018-05-23T07:21:50.051Z,5.73
2018-05-23T07:24:18.366Z,5.50
2018-05-23T07:26:45.908Z,5.03
2018-05-23T07:29:13.489Z,5.53
2018-05-23T07:31:41.035Z,7.53
2018-05-23T07:34:08.595Z,5.90
2018-05-23T07:36:36.132Z,5.80
2018-05-23T07:39:04.444Z,4.93
2018-05-23T07:41:32.104Z,5.20
2018-05-23T07:43:59.661Z,5.63
2018-05-23T07:46:27.175Z,5.93
2018-05-23T07:48:55.499Z,4.83
2018-05-23T07:51:22.992Z,5.53
2018-05-23T07:53:50.499Z,5.60
2018-05-23T07:56:18.016Z,5.50
2018-05-23T07:58:46.300Z,5.50
2018-05-23T08:01:14.630Z,5.80
2018-05-23T08:03:42.251Z,5.53
2018-05-23T08:06:09.760Z,5.80
2018-05-23T08:08:37.294Z,5.50
2018-05-23T08:11:04.819Z,5.60
2018-05-23T08:13:32.351Z,5.47
2018-05-23T08:15:59.950Z,5.90
2018-05-23T08:18:27.441Z,5.73
2018-05-23T08:20:54.960Z,6.30
2018-05-23T08:23:22.489Z,5.30
2018-05-23T08:25:50.753Z,7.07
2018-05-23T08:28:18.316Z,6.90
2018-05-23T08:30:46.604Z,7.10
2018-05-23T08:33:14.880Z,5.83
2018-05-23T08:35:43.211Z,6.70
2018-05-23T08:38:10.752Z,6.50
2018-05-23T08:40:38.271Z,6.53
2018-05-23T08:43:06.554Z,6.57
2018-05-23T08:45:34.067Z,7.60
2018-05-23T08:48:01.581Z,6.10
2018-05-23T08:50:29.102Z,6.90
2018-05-23T08:52:57.381Z,6.50
2018-05-23T08:55:25.713Z,6.93
2018-05-23T08:57:53.236Z,6.20
2018-05-23T09:00:20.744Z,7.00
2018-05-23T09:02:48.252Z,6.63
2018-05-23T09:05:15.803Z,6.73
2018-05-23T09:07:43.290Z,7.77
2018-05-23T09:10:10.799Z,8.60
2018-05-23T09:12:39.202Z,7.10
2018-05-23T09:15:06.652Z,7.20
2018-05-23T09:17:34.232Z,7.97
2018-05-23T09:20:01.732Z,7.10
2018-05-23T09:22:29.244Z,8.43
2018-05-23T09:24:56.753Z,7.50
2018-05-23T09:27:25.074Z,8.10
2018-05-23T09:29:52.563Z,7.30
2018-05-23T09:32:20.129Z,8.37
2018-05-23T09:34:47.679Z,7.83
2018-05-23T09:37:15.540Z,7.53
2018-05-23T09:39:43.166Z,7.93
2018-05-23T09:42:10.705Z,9.17
2018-05-23T09:44:38.228Z,8.20
2018-05-23T09:47:05.746Z,8.43
2018-05-23T09:49:33.279Z,8.93
2018-05-23T09:52:00.795Z,8.60
2018-05-23T09:54:28.301Z,7.60
2018-05-23T09:56:55.828Z,7.37
2018-05-23T09:59:24.106Z,6.80
2018-05-23T10:01:52.423Z,8.00
2018-05-23T10:04:19.955Z,7.47
2018-05-23T10:06:47.534Z,8.50
2018-05-23T10:09:15.098Z,8.10
2018-05-23T10:11:42.610Z,7.50
2018-05-23T10:14:10.888Z,6.73
2018-05-23T10:16:39.186Z,8.10
2018-05-23T10:19:06.742Z,8.07
2018-05-23T10:21:34.255Z,8.27
2018-05-23T10:24:01.757Z,6.50
2018-05-23T10:26:29.327Z,7.60
2018-05-23T10:28:56.830Z,6.37
2018-05-23T10:31:24.358Z,7.47
2018-05-23T10:33:51.854Z,7.27
2018-05-23T10:36:20.133Z,6.70
2018-05-23T10:38:48.403Z,6.90
2018-05-23T10:41:16.737Z,7.43
2018-05-23T10:43:44.237Z,8.10
2018-05-23T10:46:12.591Z,6.63
2018-05-23T10:48:40.076Z,5.83
2018-05-23T10:51:08.360Z,6.10
2018-05-23T10:53:35.968Z,7.57
2018-05-23T10:56:03.501Z,5.87
2018-05-23T10:58:31.020Z,5.47
2018-05-23T11:00:59.303Z,6.10
2018-05-23T11:03:26.841Z,5.23
2018-05-23T11:05:55.116Z,6.07
2018-05-23T11:08:22.682Z,6.27
2018-05-23T11:10:50.948Z,6.33
2018-05-23T11:13:18.439Z,5.70
2018-05-23T11:15:45.974Z,3.93
2018-05-23T11:18:14.235Z,5.33
2018-05-23T11:20:41.816Z,4.73
2018-05-23T11:23:10.261Z,6.33
2018-05-23T11:25:37.759Z,5.40
2018-05-23T11:28:05.250Z,5.10
2018-05-23T11:30:32.780Z,6.23
2018-05-23T11:33:00.299Z,5.00
2018-05-23T11:35:27.827Z,12.60
2018-05-23T11:37:55.354Z,4.87
2018-05-23T11:40:22.849Z,5.87
2018-05-23T11:42:50.379Z,4.57
2018-05-23T11:45:17.894Z,6.37
2018-05-23T11:47:46.175Z,6.90
2018-05-23T11:50:14.478Z,5.70
2018-05-23T11:52:41.981Z,5.80
2018-05-23T11:55:09.559Z,5.40
2018-05-23T11:57:37.807Z,5.90
2018-05-23T12:00:05.323Z,6.03
2018-05-23T12:02:32.824Z,5.97
2018-05-23T12:05:00.332Z,7.50
2018-05-23T12:07:27.877Z,5.67
2018-05-23T12:09:55.378Z,5.93
2018-05-23T12:12:22.977Z,5.70
2018-05-23T12:14:51.250Z,6.13
2018-05-23T12:17:19.529Z,7.70
2018-05-23T12:19:47.790Z,7.13
2018-05-23T12:22:16.081Z,8.30
2018-05-23T12:24:44.365Z,6.20
2018-05-23T12:27:11.945Z,5.73
2018-05-23T12:29:39.439Z,6.07
2018-05-23T12:32:06.938Z,5.60
2018-05-23T12:34:34.456Z,5.97
2018-05-23T12:37:01.962Z,8.23
2018-05-23T12:39:29.512Z,6.37
2018-05-23T12:41:57.769Z,6.77
2018-05-23T12:44:26.041Z,5.23
2018-05-23T12:46:54.318Z,6.37
2018-05-23T12:49:32.502Z,5.20
2018-05-23T12:52:00.010Z,6.73
2018-05-23T12:54:27.559Z,4.80
2018-05-23T12:56:55.113Z,5.30
2018-05-23T12:59:22.635Z,5.87
2018-05-23T13:01:50.110Z,7.90
2018-05-23T13:04:18.410Z,5.47
2018-05-23T13:06:45.921Z,5.57
2018-05-23T13:09:13.445Z,4.90
2018-05-23T13:11:40.985Z,5.90
2018-05-23T13:14:08.520Z,4.40
2018-05-23T13:16:36.922Z,7.33
2018-05-23T13:19:04.448Z,4.83
2018-05-23T13:21:32.722Z,6.10
2018-05-23T13:24:01.046Z,4.40
2018-05-23T13:26:28.605Z,4.13
2018-05-23T13:28:56.125Z,3.13
2018-05-23T13:31:23.685Z,4.83
2018-05-23T13:33:51.221Z,4.17
2018-05-23T13:36:19.485Z,3.90
2018-05-23T13:38:46.982Z,5.33
2018-05-23T13:41:14.496Z,4.00
2018-05-23T13:43:42.032Z,3.60
2018-05-23T13:46:09.651Z,3.40
2018-05-23T13:48:37.168Z,4.33
2018-05-23T13:51:04.697Z,4.47
2018-05-23T13:53:32.233Z,4.90
2018-05-23T13:55:59.756Z,5.50
2018-05-23T13:58:28.355Z,8.90
2018-05-23T14:00:55.968Z,4.17
2018-05-23T14:03:23.471Z,5.20
2018-05-23T14:05:51.024Z,4.70
2018-05-23T14:08:18.569Z,4.77
2018-05-23T14:10:46.857Z,5.50
2018-05-23T14:13:14.427Z,5.23
2018-05-23T14:15:41.935Z,4.37
2018-05-23T14:18:09.438Z,4.87
2018-05-23T14:20:36.944Z,4.20
2018-05-23T14:23:04.439Z,6.43
2018-05-23T14:25:31.922Z,5.10
2018-05-23T14:27:59.509Z,5.07
2018-05-23T14:30:27.116Z,5.57
2018-05-23T14:32:54.642Z,4.93
2018-05-23T14:35:22.190Z,5.13
2018-05-23T14:37:49.718Z,5.03
2018-05-23T14:40:17.264Z,4.63
2018-05-23T14:42:44.776Z,4.67
2018-05-23T14:45:12.382Z,6.53
2018-05-23T14:47:40.043Z,5.40
2018-05-23T14:50:07.655Z,5.13
2018-05-23T14:52:35.095Z,5.90
2018-05-23T14:55:02.616Z,5.17
2018-05-23T14:57:30.113Z,5.53
2018-05-23T14:59:57.773Z,5.37
2018-05-23T15:02:25.425Z,5.60
2018-05-23T15:04:52.903Z,6.37
2018-05-23T15:07:21.195Z,6.40
2018-05-23T15:09:49.476Z,4.83
2018-05-23T15:12:17.012Z,5.30
2018-05-23T15:14:45.304Z,4.43
2018-05-23T15:17:12.853Z,5.00
2018-05-23T15:19:41.176Z,6.50
2018-05-23T15:22:08.678Z,6.10
2018-05-23T15:24:36.951Z,5.53
2018-05-23T15:27:05.241Z,5.80
2018-05-23T15:29:33.640Z,5.30
2018-05-23T15:32:01.147Z,6.17
2018-05-23T15:34:29.485Z,5.43
2018-05-23T15:36:57.023Z,5.27
2018-05-23T15:39:24.600Z,6.40
2018-05-23T15:41:52.128Z,5.40
2018-05-23T15:44:19.663Z,6.20
2018-05-23T15:46:47.940Z,5.57
2018-05-23T15:49:16.224Z,5.73
2018-05-23T15:51:44.509Z,6.50
2018-05-23T15:54:12.084Z,5.10
2018-05-23T15:56:39.645Z,4.90
2018-05-23T15:59:07.186Z,6.17
2018-05-23T16:01:34.707Z,5.70
2018-05-23T16:04:02.216Z,4.80
2018-05-23T16:06:29.740Z,4.57
2018-05-23T16:08:58.032Z,5.20
2018-05-23T16:11:25.578Z,4.87
2018-05-23T16:13:53.927Z,5.60
2018-05-23T16:16:21.409Z,5.63
2018-05-23T16:18:49.709Z,4.70
2018-05-23T16:21:17.236Z,5.33
2018-05-23T16:23:45.528Z,5.20
2018-05-23T16:26:13.103Z,5.97
2018-05-23T16:28:40.638Z,4.67
2018-05-23T16:31:08.148Z,7.37
2018-05-23T16:33:35.650Z,5.03
2018-05-23T16:36:04.055Z,5.40
2018-05-23T16:38:31.561Z,5.10
2018-05-23T16:40:59.065Z,6.83
2018-05-23T16:43:26.598Z,5.43
2018-05-23T16:45:54.093Z,6.30
2018-05-23T16:48:21.618Z,9.00
2018-05-23T16:50:49.150Z,6.60
2018-05-23T16:53:17.416Z,5.70
2018-05-23T16:55:45.066Z,5.10
2018-05-23T16:58:12.530Z,5.30
2018-05-23T17:00:40.839Z,6.50
2018-05-23T17:03:08.390Z,5.33
2018-05-23T17:05:36.667Z,5.03
2018-05-23T17:08:04.162Z,5.60
2018-05-23T17:10:31.650Z,5.07
2018-05-23T17:12:59.172Z,4.70
2018-05-23T17:15:26.665Z,5.33
2018-05-23T17:17:54.179Z,5.80
2018-05-23T17:20:21.712Z,5.50
2018-05-23T17:22:49.216Z,6.27
2018-05-23T17:25:16.707Z,6.10
2018-05-23T17:27:44.972Z,5.67
2018-05-23T17:30:12.500Z,5.90
2018-05-23T17:32:40.022Z,5.83
2018-05-23T17:35:07.535Z,4.80
2018-05-23T17:37:35.049Z,5.87
2018-05-23T17:40:02.588Z,5.37
2018-05-23T17:42:30.155Z,5.33
2018-05-23T17:44:57.700Z,5.90
2018-05-23T17:47:25.219Z,6.63
2018-05-23T17:49:52.753Z,5.93
2018-05-23T17:52:20.319Z,6.90
2018-05-23T17:54:47.836Z,6.87
2018-05-23T17:57:15.402Z,6.17
2018-05-23T17:59:42.882Z,6.57
2018-05-23T18:02:10.416Z,6.20
2018-05-23T18:04:37.917Z,5.87
2018-05-23T18:07:05.438Z,6.50
2018-05-23T18:09:32.957Z,5.90
2018-05-23T18:12:01.348Z,6.80
2018-05-23T18:14:28.926Z,6.07
2018-05-23T18:16:56.420Z,6.47
2018-05-23T18:19:24.222Z,5.17
2018-05-23T18:21:51.778Z,4.93
2018-05-23T18:24:20.058Z,4.93
2018-05-23T18:26:47.579Z,4.60
2018-05-23T18:29:15.172Z,4.53
2018-05-23T18:31:42.682Z,5.27
2018-05-23T18:34:10.198Z,4.97
2018-05-23T18:36:37.734Z,8.23
2018-05-23T18:39:06.019Z,5.60
2018-05-23T18:41:33.562Z,6.60
2018-05-23T18:44:01.838Z,8.60
2018-05-23T18:46:30.237Z,6.60
2018-05-23T18:48:57.812Z,7.10
2018-05-23T18:51:25.347Z,6.23
2018-05-23T18:53:52.848Z,6.97
2018-05-23T18:56:20.346Z,6.40
2018-05-23T18:58:47.852Z,6.60
2018-05-23T19:01:15.369Z,6.20
2018-05-23T19:03:42.901Z,6.10
2018-05-23T19:06:11.218Z,6.17
2018-05-23T19:08:38.752Z,6.43
2018-05-23T19:11:07.024Z,5.50
2018-05-23T19:13:35.296Z,6.30
2018-05-23T19:16:03.584Z,6.70
2018-05-23T19:18:31.095Z,4.93
2018-05-23T19:20:58.691Z,5.93
2018-05-23T19:23:26.978Z,5.97
2018-05-23T19:25:54.492Z,13.03
2018-05-23T19:28:22.106Z,12.27
2018-05-23T19:30:49.625Z,4.87
2018-05-23T19:33:17.895Z,4.50
2018-05-23T19:35:45.526Z,4.60
2018-05-23T19:38:13.019Z,4.97
2018-05-23T19:40:41.310Z,5.10
2018-05-23T19:43:08.838Z,6.40
2018-05-23T19:45:36.358Z,5.20
2018-05-23T19:48:03.871Z,5.23
2018-05-23T19:50:33.899Z,5.10
2018-05-23T19:53:01.557Z,5.57
2018-05-23T19:55:29.730Z,5.97
2018-05-23T19:57:57.307Z,5.50
2018-05-23T20:00:24.850Z,5.60
2018-05-23T20:02:52.413Z,15.80
2018-05-23T20:05:19.960Z,13.30
2018-05-23T20:07:47.475Z,6.67
2018-05-23T20:10:15.062Z,6.97
2018-05-23T20:12:43.342Z,6.50
2018-05-23T20:15:11.658Z,7.27
2018-05-23T20:17:39.167Z,8.00
2018-05-23T20:20:07.494Z,7.57
2018-05-23T20:22:35.013Z,8.93
2018-05-23T20:25:02.548Z,7.43
2018-05-23T20:27:30.838Z,9.00
2018-05-23T20:29:59.143Z,9.10
2018-05-23T20:32:26.749Z,9.47
2018-05-23T20:34:54.249Z,9.87
2018-05-23T20:37:21.768Z,9.70
2018-05-23T20:39:50.030Z,10.50
2018-05-23T20:42:17.556Z,11.60
2018-05-23T20:44:45.080Z,39.57
2018-05-23T20:47:12.665Z,12.53
2018-05-23T20:49:40.195Z,12.67
2018-05-23T20:52:07.783Z,12.83
2018-05-23T20:54:35.342Z,13.07
2018-05-23T20:57:02.875Z,14.63
2018-05-23T20:59:30.423Z,14.57
2018-05-23T21:01:57.934Z,14.60
2018-05-23T21:04:25.462Z,18.13
2018-05-23T21:06:53.003Z,17.67
2018-05-23T21:09:20.538Z,19.83
2018-05-23T21:11:48.808Z,18.10
2018-05-23T21:14:17.204Z,19.40
2018-05-23T21:16:45.496Z,18.83
2018-05-23T21:19:13.052Z,17.67
2018-05-23T21:21:40.565Z,20.33
2018-05-23T21:24:08.082Z,20.70
2018-05-23T21:26:35.607Z,18.27
2018-05-23T21:29:03.908Z,19.07
2018-05-23T21:31:31.427Z,18.87
2018-05-23T21:33:59.759Z,19.17
2018-05-23T21:36:27.275Z,19.00
2018-05-23T21:38:54.842Z,24.90
2018-05-23T21:41:22.384Z,20.97
2018-05-23T21:43:50.688Z,20.67
2018-05-23T21:46:18.179Z,19.60
2018-05-23T21:48:45.722Z,17.20
2018-05-23T21:51:13.217Z,16.30
2018-05-23T21:53:41.503Z,17.63
2018-05-23T21:56:09.920Z,15.13
2018-05-23T21:58:37.448Z,16.60
2018-05-23T22:01:04.979Z,14.80
2018-05-23T22:03:32.494Z,14.20
2018-05-23T22:06:00.119Z,16.50
2018-05-23T22:08:27.679Z,16.87
2018-05-23T22:10:55.194Z,14.67
2018-05-23T22:13:22.705Z,16.27
2018-05-23T22:15:50.204Z,16.10
2018-05-23T22:18:17.769Z,17.60
2018-05-23T22:20:45.311Z,15.57
2018-05-23T22:23:12.851Z,16.03
2018-05-23T22:25:40.363Z,15.43
2018-05-23T22:28:07.921Z,15.73
2018-05-23T22:30:36.326Z,14.97
2018-05-23T22:33:03.775Z,15.93
2018-05-23T22:35:31.274Z,15.80
2018-05-23T22:37:58.784Z,15.70
2018-05-23T22:40:26.352Z,16.17
2018-05-23T22:42:53.871Z,16.13
2018-05-23T22:45:21.389Z,16.00
2018-05-23T22:47:48.942Z,16.90
2018-05-23T22:50:16.470Z,17.07
2018-05-23T22:52:43.980Z,16.10
2018-05-23T22:55:11.514Z,14.60
2018-05-23T22:57:39.008Z,15.67
2018-05-23T23:00:06.537Z,16.67
2018-05-23T23:02:34.049Z,17.30
2018-05-23T23:05:01.634Z,15.43
2018-05-23T23:07:29.186Z,14.23
2018-05-23T23:09:56.725Z,15.57
2018-05-23T23:12:24.213Z,14.20
2018-05-23T23:14:51.759Z,13.20
2018-05-23T23:17:19.301Z,13.43
2018-05-23T23:19:46.855Z,12.27
2018-05-23T23:22:27.181Z,13.00
2018-05-23T23:24:54.734Z,11.70
2018-05-23T23:27:22.348Z,12.37
2018-05-23T23:29:49.868Z,11.03
2018-05-23T23:32:18.167Z,11.43
2018-05-23T23:34:45.699Z,10.90
2018-05-23T23:37:14.002Z,11.43
2018-05-23T23:39:41.521Z,10.73
2018-05-23T23:42:09.022Z,10.10
2018-05-23T23:44:36.664Z,9.67
2018-05-23T23:47:04.136Z,10.37
2018-05-23T23:49:31.646Z,9.63
2018-05-23T23:51:59.183Z,12.00
2018-05-23T23:54:26.711Z,9.67
2018-05-23T23:56:54.272Z,9.63
2018-05-23T23:59:21.806Z,9.50
